createdAt,value
2023-02-14T00:01:12.067Z,34.85
2023-02-14T00:03:42.788Z,35.05
2023-02-14T00:06:15.694Z,34.83
2023-02-14T00:08:46.945Z,35.16
2023-02-14T00:11:17.295Z,34.75
2023-02-14T00:14:02.922Z,34.67
2023-02-14T00:16:33.548Z,35.11
2023-02-14T00:19:07.376Z,35.20
2023-02-14T00:21:41.664Z,34.89
2023-02-14T00:24:14.142Z,35.03
2023-02-14T00:26:45.887Z,35.22
2023-02-14T00:29:21.753Z,35.03
2023-02-14T00:31:52.305Z,35.10
2023-02-14T00:34:23.181Z,35.37
2023-02-14T00:36:53.685Z,34.94
2023-02-14T00:39:24.550Z,35.29
2023-02-14T00:41:55.199Z,34.84
2023-02-14T00:44:28.471Z,35.11
2023-02-14T00:46:58.406Z,35.25
2023-02-14T00:49:29.127Z,35.11
2023-02-14T00:51:59.804Z,34.89
2023-02-14T00:54:31.594Z,34.84
2023-02-14T00:57:02.507Z,35.20
2023-02-14T00:59:35.033Z,34.97
2023-02-14T01:02:05.726Z,35.04
2023-02-14T01:04:37.058Z,35.05
2023-02-14T01:07:07.267Z,35.51
2023-02-14T01:09:37.620Z,35.34
2023-02-14T01:12:09.114Z,35.18
2023-02-14T01:14:41.836Z,35.17
2023-02-14T01:17:12.476Z,35.13
2023-02-14T01:19:43.774Z,35.06
2023-02-14T01:22:14.956Z,35.15
2023-02-14T01:24:45.462Z,35.23
2023-02-14T01:27:15.604Z,35.24
2023-02-14T01:29:48.332Z,35.23
2023-02-14T01:32:19.082Z,35.30
2023-02-14T01:34:50.017Z,35.32
2023-02-14T01:37:20.847Z,35.32
2023-02-14T01:39:52.109Z,35.01
2023-02-14T01:42:22.312Z,35.33
2023-02-14T01:45:05.777Z,35.15
2023-02-14T01:47:42.192Z,35.25
2023-02-14T01:50:25.187Z,35.55
2023-02-14T01:53:04.081Z,35.38
2023-02-14T01:55:39.882Z,35.13
2023-02-14T01:58:15.675Z,35.04
2023-02-14T02:01:00.670Z,35.45
2023-02-14T02:03:36.613Z,35.11
2023-02-14T02:06:15.886Z,35.30
2023-02-14T02:08:57.790Z,35.25
2023-02-14T02:11:29.857Z,35.63
2023-02-14T02:13:59.846Z,35.33
2023-02-14T02:17:14.655Z,35.26
2023-02-14T02:20:29.211Z,35.57
2023-02-14T02:23:38.107Z,35.39
2023-02-14T02:26:48.173Z,35.70
2023-02-14T02:30:05.391Z,35.63
2023-02-14T02:33:31.041Z,35.35
2023-02-14T02:36:37.242Z,35.38
2023-02-14T02:39:32.126Z,35.63
2023-02-14T02:42:14.968Z,35.67
2023-02-14T02:44:58.353Z,35.40
2023-02-14T02:47:36.296Z,35.58
2023-02-14T02:50:37.493Z,35.74
2023-02-14T02:53:22.234Z,35.93
2023-02-14T02:56:17.362Z,35.66
2023-02-14T02:58:54.676Z,35.50
2023-02-14T03:01:36.368Z,35.56
2023-02-14T03:04:32.068Z,35.95
2023-02-14T03:07:23.966Z,35.95
2023-02-14T03:10:00.570Z,35.77
2023-02-14T03:13:14.195Z,35.66
2023-02-14T03:16:29.267Z,35.61
2023-02-14T03:19:45.260Z,35.84
2023-02-14T03:22:30.503Z,35.71
2023-02-14T03:25:19.626Z,35.95
2023-02-14T03:27:59.609Z,36.09
2023-02-14T03:30:42.454Z,36.04
2023-02-14T03:33:26.203Z,35.84
2023-02-14T03:36:06.071Z,35.79
2023-02-14T03:38:44.743Z,36.01
2023-02-14T03:41:23.903Z,36.19
2023-02-14T03:44:00.020Z,35.90
2023-02-14T03:46:38.125Z,35.72
2023-02-14T03:49:15.949Z,35.80
2023-02-14T03:51:53.448Z,35.78
2023-02-14T03:54:28.059Z,36.15
2023-02-14T03:57:12.911Z,35.75
2023-02-14T03:59:44.927Z,36.16
2023-02-14T04:02:21.829Z,36.02
2023-02-14T04:04:56.039Z,35.76
2023-02-14T04:07:28.058Z,35.74
2023-02-14T04:09:57.989Z,35.69
2023-02-14T04:12:37.693Z,35.53
2023-02-14T04:15:10.665Z,36.14
2023-02-14T04:17:58.121Z,35.65
2023-02-14T04:20:30.772Z,35.90
2023-02-14T04:23:03.335Z,35.98
2023-02-14T04:25:33.953Z,35.83
2023-02-14T04:28:06.300Z,35.72
2023-02-14T04:30:36.390Z,35.64
2023-02-14T04:33:08.936Z,35.71
2023-02-14T04:35:39.276Z,35.90
2023-02-14T04:38:10.157Z,36.01
2023-02-14T04:40:40.980Z,35.76
2023-02-14T04:43:14.229Z,36.02
2023-02-14T04:45:44.794Z,35.66
2023-02-14T04:48:15.935Z,36.16
2023-02-14T04:50:46.683Z,36.17
2023-02-14T04:53:16.608Z,36.01
2023-02-14T04:55:47.357Z,35.63
2023-02-14T04:58:20.548Z,36.22
2023-02-14T05:00:51.165Z,36.08
2023-02-14T05:03:21.969Z,35.61
2023-02-14T05:05:52.224Z,35.79
2023-02-14T05:08:22.417Z,35.91
2023-02-14T05:10:52.972Z,35.82
2023-02-14T05:13:25.538Z,35.97
2023-02-14T05:15:56.663Z,36.49
2023-02-14T05:18:30.266Z,36.37
2023-02-14T05:21:01.421Z,36.20
2023-02-14T05:23:32.535Z,36.50
2023-02-14T05:26:02.987Z,36.71
2023-02-14T05:28:36.050Z,36.42
2023-02-14T05:31:06.886Z,36.79
2023-02-14T05:33:37.349Z,36.41
2023-02-14T05:36:09.181Z,36.45
2023-02-14T05:38:40.008Z,36.33
2023-02-14T05:41:10.707Z,36.54
2023-02-14T05:43:43.824Z,36.89
2023-02-14T05:46:14.713Z,36.60
2023-02-14T05:48:46.507Z,36.72
2023-02-14T05:51:18.028Z,36.62
2023-02-14T05:53:48.880Z,36.85
2023-02-14T05:56:20.353Z,36.66
2023-02-14T05:58:51.983Z,36.79
2023-02-14T06:01:23.169Z,36.63
2023-02-14T06:03:53.873Z,36.70
2023-02-14T06:06:24.656Z,36.39
2023-02-14T06:08:54.907Z,36.72
2023-02-14T06:11:25.625Z,36.40
2023-02-14T06:13:58.442Z,36.78
2023-02-14T06:16:29.222Z,36.46
2023-02-14T06:18:59.821Z,36.67
2023-02-14T06:21:29.990Z,36.63
2023-02-14T06:24:00.898Z,36.42
2023-02-14T06:26:32.271Z,36.66
2023-02-14T06:29:05.943Z,36.65
2023-02-14T06:31:36.950Z,36.42
2023-02-14T06:34:07.670Z,36.69
2023-02-14T06:36:38.409Z,36.36
2023-02-14T06:39:08.406Z,36.21
2023-02-14T06:41:39.231Z,36.54
2023-02-14T06:44:10.905Z,36.42
2023-02-14T06:46:41.545Z,36.31
2023-02-14T06:49:17.200Z,36.03
2023-02-14T06:51:48.239Z,35.70
2023-02-14T06:54:19.378Z,36.01
2023-02-14T06:56:50.577Z,35.60
2023-02-14T06:59:23.202Z,35.61
2023-02-14T07:01:53.807Z,35.61
2023-02-14T07:04:24.657Z,35.60
2023-02-14T07:06:55.603Z,35.29
2023-02-14T07:09:26.691Z,35.50
2023-02-14T07:11:57.892Z,35.19
2023-02-14T07:14:30.759Z,35.24
2023-02-14T07:17:02.136Z,34.88
2023-02-14T07:19:32.887Z,34.83
2023-02-14T07:22:04.263Z,34.96
2023-02-14T07:24:34.887Z,34.53
2023-02-14T07:27:04.962Z,34.68
2023-02-14T07:29:38.535Z,34.18
2023-02-14T07:32:09.776Z,34.55
2023-02-14T07:34:41.377Z,34.53
2023-02-14T07:37:12.515Z,34.53
2023-02-14T07:39:42.521Z,34.38
2023-02-14T07:42:12.918Z,34.33
2023-02-14T07:44:46.866Z,34.14
2023-02-14T07:47:16.671Z,34.28
2023-02-14T07:49:46.941Z,33.74
2023-02-14T07:52:17.799Z,33.95
2023-02-14T07:54:48.469Z,33.73
2023-02-14T07:57:18.792Z,33.72
2023-02-14T07:59:52.618Z,33.85
2023-02-14T08:02:23.627Z,33.31
2023-02-14T08:04:53.859Z,33.61
2023-02-14T08:07:25.115Z,33.49
2023-02-14T08:10:00.257Z,33.04
2023-02-14T08:12:47.179Z,33.41
2023-02-14T08:15:36.885Z,33.62
2023-02-14T08:18:07.600Z,33.11
2023-02-14T08:20:37.908Z,32.82
2023-02-14T08:23:08.904Z,32.97
2023-02-14T08:25:41.747Z,33.02
2023-02-14T08:28:14.054Z,32.91
2023-02-14T08:30:47.814Z,33.26
2023-02-14T08:33:18.753Z,33.08
2023-02-14T08:35:49.989Z,32.83
2023-02-14T08:38:21.970Z,32.71
2023-02-14T08:40:53.295Z,32.48
2023-02-14T08:43:24.564Z,32.51
2023-02-14T08:45:59.082Z,32.59
2023-02-14T08:48:30.122Z,32.11
2023-02-14T08:51:00.678Z,32.21
2023-02-14T08:53:31.621Z,32.29
2023-02-14T08:56:07.619Z,31.96
2023-02-14T08:58:39.004Z,32.06
2023-02-14T09:01:15.975Z,31.90
2023-02-14T09:03:48.253Z,31.73
2023-02-14T09:06:20.039Z,31.56
2023-02-14T09:08:51.530Z,31.45
2023-02-14T09:11:26.594Z,31.20
2023-02-14T09:13:57.216Z,31.12
2023-02-14T09:16:30.108Z,31.09
2023-02-14T09:19:01.391Z,30.83
2023-02-14T09:21:32.345Z,31.10
2023-02-14T09:24:03.570Z,30.90
2023-02-14T09:26:37.364Z,30.94
2023-02-14T09:29:08.658Z,30.63
2023-02-14T09:31:41.968Z,30.92
2023-02-14T09:34:12.736Z,31.10
2023-02-14T09:36:47.633Z,30.79
2023-02-14T09:39:18.640Z,30.82
2023-02-14T09:42:29.238Z,30.63
2023-02-14T09:45:08.743Z,30.53
2023-02-14T09:47:50.044Z,30.67
2023-02-14T09:50:26.349Z,30.35
2023-02-14T09:53:03.060Z,30.62
2023-02-14T09:55:43.069Z,30.42
2023-02-14T09:58:20.270Z,30.25
2023-02-14T10:00:59.302Z,30.40
2023-02-14T10:04:03.048Z,30.55
2023-02-14T10:07:05.372Z,30.35
2023-02-14T10:09:55.401Z,30.88
2023-02-14T10:12:32.413Z,30.31
2023-02-14T10:15:10.421Z,30.01
2023-02-14T10:17:48.196Z,29.93
2023-02-14T10:20:30.704Z,30.18
2023-02-14T10:23:09.032Z,30.29
2023-02-14T10:25:49.880Z,30.24
2023-02-14T10:28:29.934Z,30.10
2023-02-14T10:31:18.162Z,30.35
2023-02-14T10:33:57.865Z,30.11
2023-02-14T10:36:54.527Z,30.39
2023-02-14T10:40:03.270Z,30.04
2023-02-14T10:42:47.881Z,30.30
2023-02-14T10:45:29.839Z,30.44
2023-02-14T10:48:13.929Z,30.10
2023-02-14T10:51:06.768Z,30.38
2023-02-14T10:53:54.339Z,30.36
2023-02-14T10:56:34.863Z,30.18
2023-02-14T10:59:17.603Z,30.11
2023-02-14T11:01:49.734Z,30.39
2023-02-14T11:04:24.506Z,30.14
2023-02-14T11:06:55.476Z,30.48
2023-02-14T11:09:27.836Z,30.38
2023-02-14T11:12:06.574Z,30.21
2023-02-14T11:14:40.527Z,29.99
2023-02-14T11:17:32.853Z,30.45
2023-02-14T11:20:08.994Z,30.57
2023-02-14T11:22:41.266Z,30.04
2023-02-14T11:25:29.167Z,30.12
2023-02-14T11:28:05.673Z,30.21
2023-02-14T11:30:44.172Z,30.15
2023-02-14T11:33:25.460Z,30.35
2023-02-14T11:35:56.540Z,30.42
2023-02-14T11:38:35.913Z,30.17
2023-02-14T11:41:13.032Z,30.15
2023-02-14T11:43:46.940Z,30.34
2023-02-14T11:46:28.267Z,30.44
2023-02-14T11:49:02.525Z,30.22
2023-02-14T11:51:39.001Z,30.07
2023-02-14T11:54:35.009Z,30.31
2023-02-14T11:57:14.196Z,30.48
2023-02-14T11:59:51.767Z,30.03
2023-02-14T12:02:35.152Z,30.11
2023-02-14T12:05:10.455Z,30.33
2023-02-14T12:07:42.141Z,30.60
2023-02-14T12:10:31.943Z,30.23
2023-02-14T12:13:22.801Z,30.30
2023-02-14T12:15:57.432Z,30.51
2023-02-14T12:18:53.763Z,30.34
2023-02-14T12:21:49.597Z,30.25
2023-02-14T12:24:32.415Z,30.26
2023-02-14T12:27:20.532Z,30.48
2023-02-14T12:30:03.451Z,30.23
2023-02-14T12:32:35.232Z,30.26
2023-02-14T12:35:18.282Z,30.13
2023-02-14T12:38:08.423Z,29.94
2023-02-14T12:40:58.421Z,29.90
2023-02-14T12:43:51.162Z,30.14
2023-02-14T12:47:01.695Z,29.80
2023-02-14T12:50:05.549Z,29.99
2023-02-14T12:53:04.638Z,30.03
2023-02-14T12:55:56.475Z,29.96
2023-02-14T12:58:49.921Z,30.18
2023-02-14T13:02:00.242Z,29.81
2023-02-14T13:05:15.807Z,30.03
2023-02-14T13:08:10.290Z,30.18
2023-02-14T13:10:56.718Z,29.64
2023-02-14T13:13:43.043Z,29.88
2023-02-14T13:16:30.463Z,30.22
2023-02-14T13:19:16.141Z,29.80
2023-02-14T13:21:48.001Z,29.94
2023-02-14T13:24:24.478Z,29.81
2023-02-14T13:27:03.164Z,30.13
2023-02-14T13:29:49.936Z,29.80
2023-02-14T13:32:25.848Z,30.07
2023-02-14T13:35:00.086Z,30.18
2023-02-14T13:37:33.522Z,29.76
2023-02-14T13:40:10.993Z,30.21
2023-02-14T13:43:00.514Z,29.91
2023-02-14T13:46:07.700Z,29.66
2023-02-14T13:48:39.343Z,29.99
2023-02-14T13:51:13.894Z,30.09
2023-02-14T13:53:50.980Z,29.88
2023-02-14T13:56:45.117Z,30.24
2023-02-14T13:59:33.570Z,29.97
2023-02-14T14:02:35.542Z,30.11
2023-02-14T14:06:07.074Z,30.19
2023-02-14T14:08:58.504Z,30.24
2023-02-14T14:11:53.640Z,29.73
2023-02-14T14:14:40.614Z,30.04
2023-02-14T14:17:33.244Z,30.41
2023-02-14T14:20:05.429Z,30.02
2023-02-14T14:22:49.254Z,30.32
2023-02-14T14:25:34.734Z,30.49
2023-02-14T14:28:13.339Z,30.18
2023-02-14T14:30:47.421Z,30.30
2023-02-14T14:33:26.067Z,30.54
2023-02-14T14:35:58.861Z,30.55
2023-02-14T14:38:29.796Z,30.29
2023-02-14T14:41:05.140Z,30.92
2023-02-14T14:43:42.364Z,30.80
2023-02-14T14:46:17.857Z,30.91
2023-02-14T14:48:52.687Z,30.55
2023-02-14T14:51:29.172Z,30.69
2023-02-14T14:54:05.108Z,30.54
2023-02-14T14:56:44.321Z,30.87
2023-02-14T14:59:31.147Z,30.58
2023-02-14T15:02:02.557Z,30.90
2023-02-14T15:04:36.076Z,30.94
2023-02-14T15:07:26.993Z,30.72
2023-02-14T15:09:57.018Z,31.06
2023-02-14T15:12:48.262Z,30.48
2023-02-14T15:15:21.129Z,30.96
2023-02-14T15:17:53.484Z,31.07
2023-02-14T15:20:26.987Z,30.99
2023-02-14T15:22:58.087Z,30.71
2023-02-14T15:25:34.303Z,30.84
2023-02-14T15:28:06.500Z,30.66
2023-02-14T15:30:40.172Z,30.67
2023-02-14T15:33:14.388Z,31.33
2023-02-14T15:35:46.671Z,30.87
2023-02-14T15:38:18.746Z,31.06
2023-02-14T15:40:50.688Z,31.03
2023-02-14T15:43:35.171Z,31.19
2023-02-14T15:46:28.802Z,30.98
2023-02-14T15:49:04.072Z,30.82
2023-02-14T15:51:37.228Z,30.92
2023-02-14T15:54:12.055Z,31.32
2023-02-14T15:56:49.560Z,30.87
2023-02-14T15:59:26.863Z,31.11
2023-02-14T16:02:23.201Z,31.13
2023-02-14T16:04:53.573Z,31.40
2023-02-14T16:07:28.951Z,31.02
2023-02-14T16:10:25.868Z,31.64
2023-02-14T16:13:05.110Z,31.50
2023-02-14T16:15:44.741Z,31.29
2023-02-14T16:18:34.508Z,31.78
2023-02-14T16:21:20.846Z,31.67
2023-02-14T16:24:15.200Z,31.23
2023-02-14T16:26:47.370Z,31.55
2023-02-14T16:29:21.368Z,31.33
2023-02-14T16:32:16.080Z,31.33
2023-02-14T16:34:48.768Z,31.56
2023-02-14T16:37:27.018Z,31.34
2023-02-14T16:39:59.142Z,31.90
2023-02-14T16:42:32.331Z,31.49
2023-02-14T16:45:03.072Z,31.73
2023-02-14T16:47:35.223Z,31.53
2023-02-14T16:50:05.463Z,31.66
2023-02-14T16:52:36.163Z,31.55
2023-02-14T16:55:07.808Z,31.75
2023-02-14T16:57:43.226Z,31.68
2023-02-14T17:00:15.250Z,32.27
2023-02-14T17:02:47.360Z,32.30
2023-02-14T17:05:17.907Z,31.81
2023-02-14T17:07:48.801Z,31.75
2023-02-14T17:10:23.753Z,31.79
2023-02-14T17:12:57.775Z,32.23
2023-02-14T17:15:30.718Z,32.07
2023-02-14T17:18:09.286Z,32.00
2023-02-14T17:20:43.144Z,32.16
2023-02-14T17:23:16.432Z,32.27
2023-02-14T17:25:47.402Z,32.14
2023-02-14T17:28:17.896Z,32.09
2023-02-14T17:30:48.653Z,31.94
2023-02-14T17:33:20.958Z,32.22
2023-02-14T17:35:51.800Z,32.44
2023-02-14T17:38:22.760Z,32.33
2023-02-14T17:40:53.940Z,32.50
2023-02-14T17:43:24.745Z,32.29
2023-02-14T17:45:56.868Z,32.56
2023-02-14T17:48:29.459Z,32.70
2023-02-14T17:51:00.551Z,32.37
2023-02-14T17:53:31.583Z,32.46
2023-02-14T17:56:07.108Z,32.24
2023-02-14T17:58:38.471Z,32.34
2023-02-14T18:01:11.430Z,32.29
2023-02-14T18:03:44.914Z,32.23
2023-02-14T18:06:20.238Z,32.35
2023-02-14T18:08:53.453Z,32.77
2023-02-14T18:11:26.384Z,32.61
2023-02-14T18:13:57.218Z,32.98
2023-02-14T18:16:28.118Z,32.72
2023-02-14T18:18:59.979Z,32.43
2023-02-14T18:21:30.838Z,32.50
2023-02-14T18:24:01.511Z,32.72
2023-02-14T18:26:33.295Z,32.50
2023-02-14T18:29:06.964Z,32.88
2023-02-14T18:31:39.484Z,32.70
2023-02-14T18:34:12.041Z,32.67
2023-02-14T18:36:44.772Z,32.86
2023-02-14T18:39:15.033Z,32.83
2023-02-14T18:41:46.279Z,32.62
2023-02-14T18:44:16.965Z,33.14
2023-02-14T18:46:47.791Z,32.82
2023-02-14T18:49:21.381Z,33.08
2023-02-14T18:51:51.401Z,32.75
2023-02-14T18:54:22.264Z,32.80
2023-02-14T18:56:53.019Z,32.73
2023-02-14T18:59:25.182Z,33.08
2023-02-14T19:01:56.615Z,32.79
2023-02-14T19:04:29.466Z,32.68
2023-02-14T19:07:05.599Z,33.07
2023-02-14T19:09:40.380Z,33.31
2023-02-14T19:12:11.174Z,33.05
2023-02-14T19:14:41.909Z,32.83
2023-02-14T19:17:16.153Z,33.24
2023-02-14T19:19:50.922Z,33.25
2023-02-14T19:22:25.096Z,32.94
2023-02-14T19:24:59.731Z,32.96
2023-02-14T19:27:37.710Z,32.90
2023-02-14T19:30:13.184Z,33.18
2023-02-14T19:32:46.734Z,33.36
2023-02-14T19:35:24.445Z,33.05
2023-02-14T19:37:58.881Z,33.12
2023-02-14T19:40:31.846Z,33.15
2023-02-14T19:43:04.907Z,33.19
2023-02-14T19:45:37.974Z,33.18
2023-02-14T19:48:12.220Z,33.27
2023-02-14T19:50:50.887Z,33.19
2023-02-14T19:53:25.711Z,33.67
2023-02-14T19:55:58.997Z,33.57
2023-02-14T19:58:33.341Z,33.28
2023-02-14T20:01:07.641Z,33.57
2023-02-14T20:03:44.610Z,33.83
2023-02-14T20:06:21.128Z,33.48
2023-02-14T20:08:58.037Z,33.57
2023-02-14T20:11:40.564Z,33.43
2023-02-14T20:14:14.174Z,33.61
2023-02-14T20:16:47.812Z,33.43
2023-02-14T20:19:24.412Z,33.85
2023-02-14T20:22:01.570Z,33.53
2023-02-14T20:24:41.158Z,33.70
2023-02-14T20:27:13.340Z,33.71
2023-02-14T20:29:46.363Z,33.46
2023-02-14T20:32:21.548Z,33.92
2023-02-14T20:34:54.303Z,33.70
2023-02-14T20:37:30.510Z,33.70
2023-02-14T20:40:04.266Z,33.90
2023-02-14T20:42:40.872Z,33.89
2023-02-14T20:45:14.059Z,33.56
2023-02-14T20:47:48.142Z,33.47
2023-02-14T20:50:22.949Z,34.04
2023-02-14T20:52:57.194Z,34.01
2023-02-14T20:55:40.020Z,33.79
2023-02-14T20:58:13.322Z,34.22
2023-02-14T21:00:48.172Z,33.73
2023-02-14T21:03:19.881Z,33.87
2023-02-14T21:05:54.188Z,33.88
2023-02-14T21:08:29.565Z,34.21
2023-02-14T21:11:03.861Z,33.79
2023-02-14T21:13:36.939Z,34.12
2023-02-14T21:16:12.453Z,34.14
2023-02-14T21:18:49.225Z,34.19
2023-02-14T21:21:27.914Z,34.43
2023-02-14T21:24:09.063Z,33.92
2023-02-14T21:26:42.886Z,33.91
2023-02-14T21:29:16.160Z,34.46
2023-02-14T21:31:50.481Z,34.34
2023-02-14T21:34:22.419Z,34.15
2023-02-14T21:36:57.715Z,34.03
2023-02-14T21:39:41.844Z,34.61
2023-02-14T21:42:19.701Z,33.96
2023-02-14T21:45:14.155Z,34.04
2023-02-14T21:48:13.250Z,34.59
2023-02-14T21:50:55.916Z,34.59
2023-02-14T21:53:44.864Z,34.68
2023-02-14T21:56:35.771Z,34.51
2023-02-14T21:59:12.909Z,34.77
2023-02-14T22:01:52.490Z,34.75
2023-02-14T22:04:30.040Z,34.80
2023-02-14T22:07:29.984Z,34.75
2023-02-14T22:10:13.219Z,34.41
2023-02-14T22:13:02.928Z,34.27
2023-02-14T22:15:42.756Z,34.30
2023-02-14T22:18:21.407Z,34.49
2023-02-14T22:21:14.244Z,34.71
2023-02-14T22:23:55.295Z,34.58
2023-02-14T22:26:38.352Z,34.96
2023-02-14T22:29:34.739Z,34.96
2023-02-14T22:32:12.757Z,34.41
2023-02-14T22:34:47.847Z,35.02
2023-02-14T22:37:26.305Z,34.61
2023-02-14T22:40:04.913Z,34.52
2023-02-14T22:42:41.364Z,35.08
2023-02-14T22:45:19.554Z,34.53
2023-02-14T22:47:52.896Z,34.69
2023-02-14T22:50:29.660Z,35.18
2023-02-14T22:53:04.480Z,34.68
2023-02-14T22:55:41.262Z,34.64
2023-02-14T22:58:16.350Z,34.63
2023-02-14T23:00:55.021Z,34.94
2023-02-14T23:03:29.767Z,34.78
2023-02-14T23:06:06.476Z,35.18
2023-02-14T23:12:40.724Z,35.16
2023-02-14T23:16:05.396Z,35.41
2023-02-14T23:19:05.984Z,35.59
2023-02-14T23:21:59.153Z,35.24
2023-02-14T23:24:36.556Z,35.42
2023-02-14T23:27:09.539Z,35.21
2023-02-14T23:29:45.471Z,35.68
2023-02-14T23:32:20.051Z,35.28
2023-02-14T23:34:55.324Z,35.74
2023-02-14T23:37:30.721Z,35.65
2023-02-14T23:40:01.214Z,35.27
2023-02-14T23:42:31.449Z,35.86
2023-02-14T23:45:21.526Z,35.65
2023-02-14T23:47:51.983Z,35.77
2023-02-14T23:50:24.324Z,35.26
2023-02-14T23:52:54.428Z,35.46
2023-02-14T23:55:24.366Z,35.55
2023-02-14T23:57:55.143Z,35.69
